Time;durP1;ratioP1;P1;durP2;ratioP2;P2;SDS_P1;SDS_P2;PMS_P1;PMS_P2;Temp;Humidity;BMP_temperature;BMP_pressure;BME280_temperature;BME280_humidity;BME280_pressure;Samples;Min_cycle;Max_cycle;Signal;HPM_P1;HPM_P2
2022/03/27 00:01:30;;;;;;;3.70;3.33;;;;;;;;;;6216680;23;20242;-79
2022/03/27 00:03:59;;;;;;;5.17;3.27;;;;;;;;;;6190071;23;20229;-79
2022/03/27 00:06:28;;;;;;;7.23;3.07;;;;;;;;;;6189688;23;20181;-79
2022/03/27 00:08:56;;;;;;;5.07;4.07;;;;;;;;;;6216775;23;20224;-79
2022/03/27 00:11:24;;;;;;;5.50;4.53;;;;;;;;;;6216580;23;20187;-80
2022/03/27 00:13:53;;;;;;;4.80;4.30;;;;;;;;;;6190225;23;20207;-79
2022/03/27 00:16:22;;;;;;;5.37;4.87;;;;;;;;;;6189801;23;20180;-79
2022/03/27 00:18:52;;;;;;;4.90;3.70;;;;;;;;;;6190164;23;20197;-79
2022/03/27 00:21:21;;;;;;;4.23;2.97;;;;;;;;;;6189977;23;20177;-79
2022/03/27 00:23:49;;;;;;;3.17;2.87;;;;;;;;;;6190421;23;20181;-79
2022/03/27 00:26:17;;;;;;;4.50;3.83;;;;;;;;;;6190142;23;20170;-79
2022/03/27 00:28:46;;;;;;;4.17;3.70;;;;;;;;;;6190197;23;20181;-79
2022/03/27 00:31:14;;;;;;;5.10;3.33;;;;;;;;;;6215820;23;20176;-79
2022/03/27 00:33:43;;;;;;;5.20;3.67;;;;;;;;;;6215155;23;20265;-79
2022/03/27 00:36:14;;;;;;;2.80;2.20;;;;;;;;;;6189998;23;20185;-79
2022/03/27 00:38:43;;;;;;;2.47;2.27;;;;;;;;;;6216171;23;20188;-79
2022/03/27 00:41:11;;;;;;;2.40;2.20;;;;;;;;;;6190301;23;20177;-79
2022/03/27 00:43:40;;;;;;;2.97;2.30;;;;;;;;;;6189910;23;20181;-79
2022/03/27 00:46:08;;;;;;;5.00;4.17;;;;;;;;;;6215922;23;20169;-79
2022/03/27 00:48:37;;;;;;;5.10;4.33;;;;;;;;;;6214998;23;20202;-79
2022/03/27 00:51:07;;;;;;;5.20;3.97;;;;;;;;;;6189612;23;20208;-79
2022/03/27 00:53:37;;;;;;;4.27;3.87;;;;;;;;;;6216064;23;20176;-80
2022/03/27 00:56:06;;;;;;;3.73;2.87;;;;;;;;;;6189722;23;20176;-79
2022/03/27 00:58:34;;;;;;;3.50;2.70;;;;;;;;;;6189471;23;20205;-79
2022/03/27 01:01:06;;;;;;;2.33;2.00;;;;;;;;;;6214852;23;20177;-79
2022/03/27 01:03:34;;;;;;;5.97;3.47;;;;;;;;;;6189487;23;20197;-79
2022/03/27 01:06:03;;;;;;;1.97;1.87;;;;;;;;;;6189491;23;20386;-79
2022/03/27 01:11:21;;;;;;;2.47;2.27;;;;;;;;;;6216034;23;20173;-79
2022/03/27 01:13:50;;;;;;;1.60;1.50;;;;;;;;;;6189735;23;20235;-79
2022/03/27 01:16:30;;;;;;;5.93;2.50;;;;;;;;;;6189202;23;20238;-79
2022/03/27 01:18:59;;;;;;;2.53;2.30;;;;;;;;;;6189782;23;20207;-79
2022/03/27 01:21:29;;;;;;;1.97;1.87;;;;;;;;;;6189192;23;20181;-79
2022/03/27 01:23:58;;;;;;;2.23;1.80;;;;;;;;;;6189468;23;20181;-79
2022/03/27 01:26:27;;;;;;;3.13;2.63;;;;;;;;;;6189603;23;20185;-79
2022/03/27 01:28:55;;;;;;;2.43;2.23;;;;;;;;;;6189691;23;20172;-79
2022/03/27 01:31:24;;;;;;;4.63;2.40;;;;;;;;;;6215970;23;20184;-79
2022/03/27 01:33:52;;;;;;;3.23;2.40;;;;;;;;;;6188720;23;20172;-79
2022/03/27 01:36:22;;;;;;;2.57;1.70;;;;;;;;;;6189457;23;20228;-79
2022/03/27 01:38:52;;;;;;;4.20;3.73;;;;;;;;;;6188899;23;20193;-79
2022/03/27 01:41:21;;;;;;;2.43;2.13;;;;;;;;;;6189097;23;20184;-79
2022/03/27 01:43:50;;;;;;;3.30;3.00;;;;;;;;;;6189245;23;20249;-80
2022/03/27 01:46:18;;;;;;;3.00;2.70;;;;;;;;;;6214171;23;20175;-79
2022/03/27 01:48:47;;;;;;;2.20;1.97;;;;;;;;;;6189544;23;20188;-79
2022/03/27 01:51:16;;;;;;;4.30;3.87;;;;;;;;;;6189036;23;20210;-79
2022/03/27 01:53:44;;;;;;;6.57;3.90;;;;;;;;;;6189466;23;20180;-79
2022/03/27 01:56:14;;;;;;;4.13;3.10;;;;;;;;;;6215356;23;20184;-79
2022/03/27 01:58:43;;;;;;;5.97;4.17;;;;;;;;;;6188719;23;20175;-79
2022/03/27 02:01:11;;;;;;;5.50;4.90;;;;;;;;;;6215120;23;20232;-79
2022/03/27 02:03:40;;;;;;;4.07;3.27;;;;;;;;;;6188343;23;20191;-79
2022/03/27 02:06:08;;;;;;;5.47;4.53;;;;;;;;;;6189301;23;20176;-79
2022/03/27 02:08:37;;;;;;;10.20;6.67;;;;;;;;;;6188748;23;20177;-79
2022/03/27 02:11:06;;;;;;;5.80;4.13;;;;;;;;;;6215708;23;20171;-79
2022/03/27 02:13:36;;;;;;;8.23;5.63;;;;;;;;;;6189165;23;20176;-79
2022/03/27 02:16:04;;;;;;;7.23;4.80;;;;;;;;;;6188857;23;20173;-79
2022/03/27 02:18:33;;;;;;;4.80;3.53;;;;;;;;;;6214989;23;20175;-79
2022/03/27 02:21:02;;;;;;;3.70;3.17;;;;;;;;;;6188967;23;20188;-79
2022/03/27 02:23:31;;;;;;;4.43;3.50;;;;;;;;;;6188543;23;20291;-80
2022/03/27 02:26:00;;;;;;;5.10;3.17;;;;;;;;;;6189059;23;20187;-79
2022/03/27 02:28:28;;;;;;;3.60;3.27;;;;;;;;;;6214983;23;20176;-79
2022/03/27 02:30:58;;;;;;;6.63;4.63;;;;;;;;;;6188924;23;20186;-79
2022/03/27 02:33:26;;;;;;;6.30;4.93;;;;;;;;;;6188789;23;20267;-79
2022/03/27 02:35:55;;;;;;;2.93;2.70;;;;;;;;;;6188949;23;20180;-79
2022/03/27 02:38:23;;;;;;;3.40;2.83;;;;;;;;;;6188987;23;20175;-79
2022/03/27 02:40:52;;;;;;;5.40;3.60;;;;;;;;;;6188575;23;20195;-80
2022/03/27 02:43:20;;;;;;;6.17;3.67;;;;;;;;;;6188394;23;20176;-79
2022/03/27 02:45:50;;;;;;;3.50;2.70;;;;;;;;;;6188614;23;20199;-79
2022/03/27 02:48:19;;;;;;;2.27;2.10;;;;;;;;;;6188621;23;20173;-79
2022/03/27 02:50:48;;;;;;;4.60;3.00;;;;;;;;;;6215100;23;20202;-79
2022/03/27 02:53:16;;;;;;;3.60;3.23;;;;;;;;;;6188749;23;20182;-79
2022/03/27 02:55:45;;;;;;;2.43;2.30;;;;;;;;;;6215020;23;20195;-79
2022/03/27 02:58:13;;;;;;;7.57;4.67;;;;;;;;;;6188248;23;20190;-79
2022/03/27 03:00:42;;;;;;;6.60;4.27;;;;;;;;;;6188458;23;20200;-79
2022/03/27 03:03:11;;;;;;;5.67;3.50;;;;;;;;;;6188509;23;20176;-79
2022/03/27 03:05:41;;;;;;;5.87;4.67;;;;;;;;;;6215392;23;20176;-79
2022/03/27 03:08:11;;;;;;;4.33;2.80;;;;;;;;;;6188971;23;20176;-79
2022/03/27 03:10:40;;;;;;;6.23;4.30;;;;;;;;;;6215511;23;20172;-79
2022/03/27 03:13:09;;;;;;;4.17;2.77;;;;;;;;;;6214790;23;20198;-79
2022/03/27 03:15:38;;;;;;;5.37;4.03;;;;;;;;;;6189448;23;20173;-79
2022/03/27 03:18:08;;;;;;;5.53;4.47;;;;;;;;;;6217177;23;20179;-79
2022/03/27 03:20:37;;;;;;;4.90;4.40;;;;;;;;;;6190770;23;20193;-79
2022/03/27 03:23:11;;;;;;;3.87;3.33;;;;;;;;;;6216123;23;20184;-79
2022/03/27 03:25:42;;;;;;;9.73;5.57;;;;;;;;;;6216774;23;20203;-79
2022/03/27 03:28:30;;;;;;;3.90;3.57;;;;;;;;;;6190487;23;20207;-79
2022/03/27 03:30:59;;;;;;;4.90;3.27;;;;;;;;;;6190210;23;20179;-79
2022/03/27 03:33:28;;;;;;;4.37;3.97;;;;;;;;;;6190421;23;20185;-79
2022/03/27 03:35:58;;;;;;;5.67;4.30;;;;;;;;;;6190435;23;20239;-79
2022/03/27 03:38:27;;;;;;;6.87;4.40;;;;;;;;;;6190445;23;20176;-79
2022/03/27 03:40:56;;;;;;;3.63;3.33;;;;;;;;;;6216398;23;20191;-79
2022/03/27 03:43:24;;;;;;;5.70;3.57;;;;;;;;;;6216533;23;20175;-79
2022/03/27 03:45:53;;;;;;;5.27;3.87;;;;;;;;;;6190039;23;20188;-79
2022/03/27 03:48:21;;;;;;;4.67;4.23;;;;;;;;;;6190316;23;20172;-79
2022/03/27 03:50:50;;;;;;;5.40;4.13;;;;;;;;;;6216611;23;20197;-79
2022/03/27 03:53:18;;;;;;;3.63;3.13;;;;;;;;;;6190030;23;20176;-79
2022/03/27 03:55:48;;;;;;;5.10;3.70;;;;;;;;;;6190125;23;20180;-79
2022/03/27 03:58:16;;;;;;;7.77;4.40;;;;;;;;;;6189969;23;20254;-79
2022/03/27 04:00:46;;;;;;;6.00;5.37;;;;;;;;;;6216575;23;20186;-79
2022/03/27 04:03:15;;;;;;;7.33;4.73;;;;;;;;;;6189901;23;20215;-79
2022/03/27 04:05:44;;;;;;;4.13;3.27;;;;;;;;;;6190271;23;20178;-79
2022/03/27 04:08:14;;;;;;;5.70;3.57;;;;;;;;;;6190016;23;20174;-79
2022/03/27 04:10:43;;;;;;;5.40;3.23;;;;;;;;;;6190166;23;20171;-79
2022/03/27 04:13:13;;;;;;;4.13;3.73;;;;;;;;;;6190144;23;20176;-79
2022/03/27 04:15:42;;;;;;;9.13;4.80;;;;;;;;;;6189833;23;20172;-79
2022/03/27 04:18:24;;;;;;;4.67;3.37;;;;;;;;;;6189726;23;20175;-79
2022/03/27 04:20:52;;;;;;;5.37;4.87;;;;;;;;;;6189806;23;20188;-79
2022/03/27 04:23:21;;;;;;;5.57;4.63;;;;;;;;;;6189790;23;20175;-79
2022/03/27 04:25:49;;;;;;;7.23;5.10;;;;;;;;;;6190154;23;20182;-79
2022/03/27 04:28:19;;;;;;;4.80;3.33;;;;;;;;;;6216000;23;20179;-79
2022/03/27 04:30:47;;;;;;;8.20;6.10;;;;;;;;;;6189800;23;20180;-79
2022/03/27 04:33:16;;;;;;;9.20;7.00;;;;;;;;;;6189679;23;20179;-80
2022/03/27 04:35:45;;;;;;;5.43;4.83;;;;;;;;;;6189875;23;20206;-79
2022/03/27 04:38:14;;;;;;;4.67;4.13;;;;;;;;;;6189935;23;20199;-79
2022/03/27 04:40:42;;;;;;;5.03;3.57;;;;;;;;;;6189873;23;20246;-79
2022/03/27 04:43:10;;;;;;;6.53;5.43;;;;;;;;;;6189690;23;20176;-79
2022/03/27 04:45:40;;;;;;;7.83;5.10;;;;;;;;;;6189835;23;20191;-79
2022/03/27 04:48:09;;;;;;;6.63;5.03;;;;;;;;;;6189845;23;20210;-79
2022/03/27 04:50:37;;;;;;;4.57;3.70;;;;;;;;;;6189285;23;20183;-79
2022/03/27 04:53:06;;;;;;;8.77;6.93;;;;;;;;;;6216351;23;20171;-79
2022/03/27 04:55:34;;;;;;;8.33;5.43;;;;;;;;;;6189403;23;20250;-79
2022/03/27 04:58:02;;;;;;;7.63;3.50;;;;;;;;;;6216021;23;20175;-79
2022/03/27 05:00:31;;;;;;;7.97;4.10;;;;;;;;;;6189298;23;20187;-79
2022/03/27 05:03:01;;;;;;;10.13;5.07;;;;;;;;;;6189471;23;20198;-79
2022/03/27 05:05:31;;;;;;;5.33;3.23;;;;;;;;;;6189328;23;20179;-79
2022/03/27 05:08:00;;;;;;;7.20;5.03;;;;;;;;;;6189154;23;20184;-80
2022/03/27 05:10:28;;;;;;;6.17;5.33;;;;;;;;;;6189130;23;20249;-79
2022/03/27 05:12:57;;;;;;;5.77;4.87;;;;;;;;;;6215983;23;20175;-79
2022/03/27 05:15:26;;;;;;;9.30;6.43;;;;;;;;;;6189149;23;20178;-79
2022/03/27 05:17:57;;;;;;;9.67;5.77;;;;;;;;;;6164725;23;20177;-79
2022/03/27 05:20:27;;;;;;;7.00;4.93;;;;;;;;;;6189154;23;20234;-79
2022/03/27 05:22:56;;;;;;;10.67;7.30;;;;;;;;;;6215969;23;20179;-79
2022/03/27 05:25:24;;;;;;;7.33;5.23;;;;;;;;;;6188800;23;20173;-79
2022/03/27 05:27:53;;;;;;;8.70;5.87;;;;;;;;;;6189304;23;20172;-79
2022/03/27 05:30:22;;;;;;;4.60;3.97;;;;;;;;;;6189402;23;20171;-79
2022/03/27 05:32:51;;;;;;;6.77;4.73;;;;;;;;;;6189122;23;20175;-79
2022/03/27 05:35:20;;;;;;;7.13;5.63;;;;;;;;;;6189430;23;20179;-79
2022/03/27 05:37:49;;;;;;;6.97;3.80;;;;;;;;;;6189592;23;20180;-79
2022/03/27 05:40:19;;;;;;;7.97;5.57;;;;;;;;;;6215638;23;20251;-79
2022/03/27 05:42:47;;;;;;;8.27;5.60;;;;;;;;;;6215640;23;20192;-79
2022/03/27 05:45:16;;;;;;;5.57;3.53;;;;;;;;;;6189073;23;20175;-79
2022/03/27 05:47:44;;;;;;;6.17;4.97;;;;;;;;;;6188843;23;20178;-79
2022/03/27 05:50:14;;;;;;;8.10;5.17;;;;;;;;;;6189144;23;20183;-79
2022/03/27 05:52:42;;;;;;;8.03;3.93;;;;;;;;;;6189096;23;20217;-79
2022/03/27 05:55:13;;;;;;;7.17;3.60;;;;;;;;;;6188551;23;20250;-79
2022/03/27 05:57:42;;;;;;;8.27;4.30;;;;;;;;;;6189390;23;20203;-79
2022/03/27 06:00:12;;;;;;;4.30;2.83;;;;;;;;;;6215838;23;20263;-79
2022/03/27 06:02:40;;;;;;;5.37;4.87;;;;;;;;;;6215429;23;20192;-79
2022/03/27 06:05:10;;;;;;;2.73;2.53;;;;;;;;;;6189134;23;20247;-79
2022/03/27 06:07:45;;;;;;;5.50;3.77;;;;;;;;;;6189327;23;20172;-79
2022/03/27 06:10:17;;;;;;;8.30;5.43;;;;;;;;;;6188866;23;20171;-79
2022/03/27 06:12:45;;;;;;;8.70;4.37;;;;;;;;;;6215503;23;20183;-79
2022/03/27 06:15:15;;;;;;;3.30;2.83;;;;;;;;;;6215481;23;20168;-79
2022/03/27 06:17:45;;;;;;;3.80;3.33;;;;;;;;;;6188896;23;20179;-80
2022/03/27 06:20:14;;;;;;;3.30;2.87;;;;;;;;;;6189018;23;20172;-79
2022/03/27 06:22:44;;;;;;;4.37;3.67;;;;;;;;;;6189170;23;20191;-80
2022/03/27 06:25:17;;;;;;;5.27;3.63;;;;;;;;;;6188828;23;20242;-79
2022/03/27 06:27:48;;;;;;;6.27;3.87;;;;;;;;;;6188650;23;20268;-79
2022/03/27 06:30:18;;;;;;;2.93;1.27;;;;;;;;;;6215440;23;20175;-79
2022/03/27 06:32:47;;;;;;;2.90;2.47;;;;;;;;;;6215035;23;20172;-79
2022/03/27 06:35:16;;;;;;;3.87;3.17;;;;;;;;;;6214748;23;20172;-79
2022/03/27 06:37:44;;;;;;;5.33;2.77;;;;;;;;;;6188793;23;20206;-79
2022/03/27 06:40:14;;;;;;;6.33;4.20;;;;;;;;;;6188571;23;20180;-79
2022/03/27 06:42:42;;;;;;;6.60;5.03;;;;;;;;;;6188575;23;20200;-79
2022/03/27 06:45:13;;;;;;;7.80;5.37;;;;;;;;;;6215316;23;20176;-79
2022/03/27 06:47:42;;;;;;;4.57;3.67;;;;;;;;;;6188521;23;20193;-79
2022/03/27 06:50:11;;;;;;;5.70;3.83;;;;;;;;;;6189924;23;20183;-79
2022/03/27 06:52:39;;;;;;;4.50;3.50;;;;;;;;;;6192199;23;20210;-79
2022/03/27 06:55:09;;;;;;;2.70;1.63;;;;;;;;;;6192176;23;20175;-79
2022/03/27 06:57:38;;;;;;;4.87;3.23;;;;;;;;;;6218634;23;20180;-79
2022/03/27 07:03:06;;;;;;;5.97;2.57;;;;;;;;;;6191764;23;20253;-79
2022/03/27 07:05:39;;;;;;;3.67;2.63;;;;;;;;;;6218207;23;20180;-79
2022/03/27 07:08:08;;;;;;;5.40;4.03;;;;;;;;;;6218447;23;20172;-79
2022/03/27 07:10:37;;;;;;;8.77;3.23;;;;;;;;;;6191927;23;20176;-79
2022/03/27 07:13:07;;;;;;;10.40;3.67;;;;;;;;;;6218776;23;20187;-80
2022/03/27 07:15:36;;;;;;;3.30;3.00;;;;;;;;;;6191719;23;20187;-79
2022/03/27 07:18:06;;;;;;;5.07;2.83;;;;;;;;;;6191761;23;20178;-79
2022/03/27 07:20:36;;;;;;;7.87;4.80;;;;;;;;;;6218370;23;20197;-79
2022/03/27 07:23:05;;;;;;;8.33;3.20;;;;;;;;;;6191791;23;20190;-79
2022/03/27 07:25:34;;;;;;;12.53;4.40;;;;;;;;;;6191951;23;20263;-79
2022/03/27 07:28:02;;;;;;;11.70;5.40;;;;;;;;;;6192411;23;20177;-79
2022/03/27 07:30:31;;;;;;;6.57;4.47;;;;;;;;;;6191817;23;20177;-79
2022/03/27 07:32:59;;;;;;;15.23;6.67;;;;;;;;;;6218314;23;20178;-79
2022/03/27 07:35:30;;;;;;;5.23;3.20;;;;;;;;;;6191725;23;20223;-79
2022/03/27 07:37:59;;;;;;;8.57;4.47;;;;;;;;;;6191708;23;20174;-79
2022/03/27 07:40:28;;;;;;;8.13;3.97;;;;;;;;;;6191505;23;20174;-80
2022/03/27 07:42:57;;;;;;;7.77;3.83;;;;;;;;;;6191908;23;20190;-79
2022/03/27 07:45:27;;;;;;;2.57;2.37;;;;;;;;;;6218412;23;20171;-79
2022/03/27 07:47:56;;;;;;;5.03;3.33;;;;;;;;;;6191686;23;20174;-79
2022/03/27 07:50:27;;;;;;;2.40;2.20;;;;;;;;;;6191684;23;20194;-79
2022/03/27 07:52:57;;;;;;;7.30;4.23;;;;;;;;;;6191343;23;20232;-79
2022/03/27 07:55:25;;;;;;;3.50;2.87;;;;;;;;;;6218511;23;20174;-79
2022/03/27 07:57:55;;;;;;;8.57;5.53;;;;;;;;;;6192136;23;20178;-79
2022/03/27 08:00:24;;;;;;;1.43;1.27;;;;;;;;;;6217758;23;20197;-79
2022/03/27 08:02:52;;;;;;;5.63;2.30;;;;;;;;;;6189785;23;20269;-79
2022/03/27 08:05:22;;;;;;;4.90;2.40;;;;;;;;;;6189839;23;20459;-78
2022/03/27 08:07:51;;;;;;;1.90;1.80;;;;;;;;;;6190055;23;20228;-79
2022/03/27 08:10:21;;;;;;;7.00;3.90;;;;;;;;;;6190321;23;20227;-79
2022/03/27 08:12:50;;;;;;;7.60;4.77;;;;;;;;;;6190014;23;20240;-79
2022/03/27 08:15:18;;;;;;;10.50;4.60;;;;;;;;;;6216339;23;20198;-79
2022/03/27 08:17:51;;;;;;;12.93;3.43;;;;;;;;;;6190101;23;20246;-79
2022/03/27 08:20:20;;;;;;;9.37;4.37;;;;;;;;;;6190242;23;20241;-79
2022/03/27 08:22:48;;;;;;;5.30;2.73;;;;;;;;;;6189380;23;20190;-79
2022/03/27 08:28:00;;;;;;;9.27;5.57;;;;;;;;;;6188729;23;20201;-79
2022/03/27 08:30:29;;;;;;;14.43;4.23;;;;;;;;;;6189684;23;20170;-80
2022/03/27 08:32:57;;;;;;;10.67;3.97;;;;;;;;;;6216240;23;20171;-79
2022/03/27 08:35:26;;;;;;;4.17;3.57;;;;;;;;;;6190081;23;20201;-79
2022/03/27 08:37:54;;;;;;;3.00;2.67;;;;;;;;;;6189526;23;20217;-79
2022/03/27 08:40:23;;;;;;;6.17;2.97;;;;;;;;;;6190028;23;20175;-79
2022/03/27 08:42:51;;;;;;;4.40;1.77;;;;;;;;;;6189382;23;20237;-79
2022/03/27 08:45:21;;;;;;;1.93;1.83;;;;;;;;;;6189379;23;20178;-79
2022/03/27 08:47:51;;;;;;;10.40;3.50;;;;;;;;;;6189873;23;20197;-80
2022/03/27 08:50:29;;;;;;;6.80;3.37;;;;;;;;;;6189590;23;20231;-79
2022/03/27 08:52:59;;;;;;;1.63;1.53;;;;;;;;;;6189657;23;20293;-79
2022/03/27 08:55:36;;;;;;;4.53;2.27;;;;;;;;;;6215047;23;20178;-79
2022/03/27 08:58:04;;;;;;;4.33;3.00;;;;;;;;;;6189548;23;20178;-79
2022/03/27 09:00:36;;;;;;;8.90;3.17;;;;;;;;;;6211766;23;20193;-80
2022/03/27 09:03:06;;;;;;;7.90;2.57;;;;;;;;;;6186148;23;20209;-80
2022/03/27 09:05:35;;;;;;;2.67;2.20;;;;;;;;;;6185904;23;20233;-79
2022/03/27 09:08:04;;;;;;;8.47;3.97;;;;;;;;;;6187381;23;20182;-79
2022/03/27 09:10:33;;;;;;;2.33;1.57;;;;;;;;;;6188323;23;20272;-80
2022/03/27 09:13:02;;;;;;;4.97;4.47;;;;;;;;;;6188274;23;20171;-79
2022/03/27 09:15:33;;;;;;;3.07;2.37;;;;;;;;;;6189221;23;20179;-80
2022/03/27 09:18:04;;;;;;;6.57;2.83;;;;;;;;;;6189639;23;20265;-80
2022/03/27 09:20:36;;;;;;;5.33;1.83;;;;;;;;;;6216072;23;20179;-80
2022/03/27 09:23:15;;;;;;;4.67;2.40;;;;;;;;;;6189657;23;20194;-80
2022/03/27 09:25:45;;;;;;;7.60;2.00;;;;;;;;;;6189198;23;20254;-80
2022/03/27 09:28:14;;;;;;;8.80;2.67;;;;;;;;;;6215408;23;20167;-80
2022/03/27 09:30:42;;;;;;;4.40;2.07;;;;;;;;;;6189386;23;20185;-80
2022/03/27 09:33:12;;;;;;;3.70;2.00;;;;;;;;;;6189194;23;20237;-79
2022/03/27 09:35:41;;;;;;;8.63;3.30;;;;;;;;;;6189477;23;20232;-79
2022/03/27 09:38:19;;;;;;;5.17;2.53;;;;;;;;;;6189382;23;20171;-80
2022/03/27 09:40:47;;;;;;;7.00;2.13;;;;;;;;;;6189214;23;20176;-79
2022/03/27 09:43:16;;;;;;;8.57;3.13;;;;;;;;;;6215220;23;20240;-80
2022/03/27 09:45:56;;;;;;;6.77;2.67;;;;;;;;;;6189700;23;20180;-80
2022/03/27 09:48:25;;;;;;;6.33;3.07;;;;;;;;;;6189068;23;20205;-80
2022/03/27 09:50:54;;;;;;;5.33;1.83;;;;;;;;;;6188740;23;20178;-80
2022/03/27 09:53:25;;;;;;;1.57;1.00;;;;;;;;;;6189418;23;20177;-79
2022/03/27 09:55:55;;;;;;;6.27;2.47;;;;;;;;;;6189130;23;20182;-81
2022/03/27 09:58:36;;;;;;;3.80;2.30;;;;;;;;;;6215478;23;20185;-80
2022/03/27 10:01:08;;;;;;;5.57;2.37;;;;;;;;;;6189010;23;20226;-80
2022/03/27 10:03:57;;;;;;;1.73;1.53;;;;;;;;;;6188865;23;20192;-80
2022/03/27 10:06:29;;;;;;;1.27;1.17;;;;;;;;;;6188814;23;20179;-80
2022/03/27 10:08:58;;;;;;;2.70;2.50;;;;;;;;;;6189168;23;20182;-79
2022/03/27 10:11:27;;;;;;;3.10;1.67;;;;;;;;;;6213849;23;20222;-80
2022/03/27 10:13:56;;;;;;;8.57;2.70;;;;;;;;;;6189002;23;20176;-80
2022/03/27 10:16:26;;;;;;;2.70;1.73;;;;;;;;;;6188954;23;20175;-80
2022/03/27 10:18:57;;;;;;;3.40;2.23;;;;;;;;;;6188679;23;20527;-80
2022/03/27 10:21:26;;;;;;;3.33;1.67;;;;;;;;;;6189129;23;20257;-79
2022/03/27 10:24:03;;;;;;;3.53;2.33;;;;;;;;;;6188462;23;20256;-80
2022/03/27 10:26:38;;;;;;;2.83;1.77;;;;;;;;;;6188791;23;20184;-80
2022/03/27 10:29:07;;;;;;;1.17;1.07;;;;;;;;;;6215091;23;20223;-80
2022/03/27 10:31:35;;;;;;;1.47;1.37;;;;;;;;;;6188678;23;20191;-80
2022/03/27 10:34:06;;;;;;;4.77;2.43;;;;;;;;;;6189070;23;20184;-80
2022/03/27 10:36:46;;;;;;;4.33;2.10;;;;;;;;;;6188651;23;20259;-80
2022/03/27 10:39:17;;;;;;;6.83;2.50;;;;;;;;;;6188703;23;20183;-79
2022/03/27 10:41:50;;;;;;;7.50;2.50;;;;;;;;;;6188680;23;20180;-80
2022/03/27 10:44:24;;;;;;;9.17;1.50;;;;;;;;;;6214747;23;20189;-80
2022/03/27 10:47:11;;;;;;;4.03;2.40;;;;;;;;;;6215427;23;20180;-80
2022/03/27 10:49:41;;;;;;;3.00;1.83;;;;;;;;;;6188620;23;20231;-80
2022/03/27 10:52:10;;;;;;;12.60;4.10;;;;;;;;;;6188406;23;20205;-80
2022/03/27 10:54:58;;;;;;;11.00;3.83;;;;;;;;;;6188634;23;20172;-80
2022/03/27 10:57:31;;;;;;;3.37;2.17;;;;;;;;;;6188507;23;20172;-80
2022/03/27 10:59:59;;;;;;;2.20;1.97;;;;;;;;;;6188420;23;20187;-80
2022/03/27 11:02:44;;;;;;;2.43;2.17;;;;;;;;;;6188783;23;20179;-80
2022/03/27 11:05:35;;;;;;;11.63;3.50;;;;;;;;;;6188254;23;20197;-78
2022/03/27 11:08:18;;;;;;;11.63;4.40;;;;;;;;;;6152849;23;20259;-78
2022/03/27 11:10:59;;;;;;;7.93;2.80;;;;;;;;;;6188443;23;20199;-78
2022/03/27 11:13:40;;;;;;;5.60;2.17;;;;;;;;;;6188576;23;20176;-80
2022/03/27 11:16:09;;;;;;;4.20;1.60;;;;;;;;;;6188435;23;20172;-80
2022/03/27 11:18:39;;;;;;;2.37;1.27;;;;;;;;;;6188166;23;20183;-81
2022/03/27 11:21:08;;;;;;;3.40;2.43;;;;;;;;;;6188561;23;20180;-79
2022/03/27 11:23:37;;;;;;;6.50;2.77;;;;;;;;;;6214501;23;20175;-78
2022/03/27 11:26:29;;;;;;;10.43;2.70;;;;;;;;;;6188785;23;20573;-79
2022/03/27 11:28:59;;;;;;;5.40;2.83;;;;;;;;;;6214468;23;20185;-79
2022/03/27 11:31:29;;;;;;;10.20;3.27;;;;;;;;;;6214732;23;20173;-79
2022/03/27 11:34:17;;;;;;;2.47;0.97;;;;;;;;;;6214552;23;20193;-79
2022/03/27 11:36:46;;;;;;;4.33;2.30;;;;;;;;;;6189742;23;20177;-79
2022/03/27 11:39:15;;;;;;;0.97;0.97;;;;;;;;;;6190510;23;20173;-79
2022/03/27 11:41:45;;;;;;;5.37;1.80;;;;;;;;;;6190270;23;20177;-79
2022/03/27 11:44:22;;;;;;;2.97;1.57;;;;;;;;;;6190345;23;20193;-79
2022/03/27 11:46:51;;;;;;;5.60;1.83;;;;;;;;;;6190279;23;20187;-79
2022/03/27 11:49:20;;;;;;;5.10;2.07;;;;;;;;;;6190159;23;20183;-80
2022/03/27 11:51:49;;;;;;;1.93;1.73;;;;;;;;;;6190052;23;20211;-79
2022/03/27 11:54:19;;;;;;;15.27;0.93;;;;;;;;;;6217089;23;20170;-79
2022/03/27 11:56:55;;;;;;;3.00;2.77;;;;;;;;;;6216593;23;20174;-79
2022/03/27 11:59:26;;;;;;;4.23;2.17;;;;;;;;;;6216834;23;20173;-79
2022/03/27 12:01:54;;;;;;;3.17;1.93;;;;;;;;;;6190473;23;20174;-79
2022/03/27 12:04:23;;;;;;;1.50;0.63;;;;;;;;;;6216632;23;20207;-79
2022/03/27 12:06:55;;;;;;;4.60;2.10;;;;;;;;;;6216573;23;20177;-79
2022/03/27 12:09:24;;;;;;;3.40;1.57;;;;;;;;;;6189983;23;20181;-79
2022/03/27 12:12:08;;;;;;;7.17;2.10;;;;;;;;;;6190190;23;20181;-79
2022/03/27 12:14:51;;;;;;;1.60;1.50;;;;;;;;;;6190055;23;20244;-79
2022/03/27 12:17:19;;;;;;;8.00;2.40;;;;;;;;;;6190376;23;20185;-79
2022/03/27 12:20:00;;;;;;;3.73;2.23;;;;;;;;;;6216469;23;20174;-79
2022/03/27 12:22:32;;;;;;;2.77;1.57;;;;;;;;;;6216083;23;20208;-79
2022/03/27 12:25:01;;;;;;;2.73;1.87;;;;;;;;;;6216400;23;20193;-79
2022/03/27 12:30:32;;;;;;;2.67;2.17;;;;;;;;;;6145600;23;20260;-79
2022/03/27 12:33:01;;;;;;;1.87;1.70;;;;;;;;;;6216315;23;20177;-80
2022/03/27 12:35:30;;;;;;;1.53;1.37;;;;;;;;;;6216427;23;20166;-79
2022/03/27 12:37:59;;;;;;;3.90;2.23;;;;;;;;;;6215825;23;20182;-79
2022/03/27 12:40:28;;;;;;;1.00;1.00;;;;;;;;;;6216592;23;20178;-79
2022/03/27 12:43:11;;;;;;;2.67;1.43;;;;;;;;;;6189941;23;20191;-79
2022/03/27 12:45:41;;;;;;;3.20;1.30;;;;;;;;;;6189714;23;20208;-79
2022/03/27 12:48:17;;;;;;;3.23;1.47;;;;;;;;;;6189304;23;20182;-79
2022/03/27 12:50:46;;;;;;;8.57;2.30;;;;;;;;;;6215760;23;20177;-79
2022/03/27 12:53:16;;;;;;;1.10;0.93;;;;;;;;;;6189378;23;20212;-79
2022/03/27 12:55:45;;;;;;;1.20;1.10;;;;;;;;;;6189725;23;20182;-79
2022/03/27 12:58:16;;;;;;;1.07;0.97;;;;;;;;;;6189921;23;20232;-79
2022/03/27 13:00:45;;;;;;;5.80;1.60;;;;;;;;;;6189159;23;20186;-79
2022/03/27 13:03:15;;;;;;;1.63;1.17;;;;;;;;;;6189793;23;20277;-79
2022/03/27 13:05:44;;;;;;;5.10;2.20;;;;;;;;;;6188904;23;20186;-79
2022/03/27 13:08:13;;;;;;;5.77;3.00;;;;;;;;;;6215926;23;20228;-79
2022/03/27 13:10:41;;;;;;;5.37;2.20;;;;;;;;;;6215801;23;20175;-79
2022/03/27 13:13:13;;;;;;;1.33;1.23;;;;;;;;;;6189808;23;20188;-79
2022/03/27 13:15:52;;;;;;;2.13;1.50;;;;;;;;;;6189344;23;20182;-79
2022/03/27 13:18:29;;;;;;;4.20;1.70;;;;;;;;;;6189495;23;20174;-79
2022/03/27 13:20:57;;;;;;;1.27;0.80;;;;;;;;;;6215836;23;20173;-79
2022/03/27 13:23:26;;;;;;;6.03;2.23;;;;;;;;;;6189070;23;20201;-79
2022/03/27 13:25:55;;;;;;;2.93;1.27;;;;;;;;;;6215760;23;20249;-79
2022/03/27 13:28:24;;;;;;;11.70;2.50;;;;;;;;;;6189161;23;20182;-79
2022/03/27 13:30:54;;;;;;;4.07;1.67;;;;;;;;;;6188990;23;20178;-79
2022/03/27 13:33:23;;;;;;;5.13;1.73;;;;;;;;;;6189156;23;20215;-79
2022/03/27 13:35:51;;;;;;;1.77;1.67;;;;;;;;;;6189129;23;20170;-79
2022/03/27 13:38:20;;;;;;;2.00;1.83;;;;;;;;;;6215792;23;20236;-79
2022/03/27 13:43:34;;;;;;;5.60;2.57;;;;;;;;;;6189331;23;20169;-79
2022/03/27 13:46:04;;;;;;;1.97;1.30;;;;;;;;;;6188968;23;20186;-79
2022/03/27 13:48:33;;;;;;;6.73;2.13;;;;;;;;;;6188988;23;20182;-79
2022/03/27 13:51:01;;;;;;;4.23;2.00;;;;;;;;;;6189066;23;20171;-79
2022/03/27 13:53:29;;;;;;;1.47;1.37;;;;;;;;;;6189137;23;20206;-79
2022/03/27 13:55:58;;;;;;;6.23;2.20;;;;;;;;;;6215880;23;20171;-79
2022/03/27 13:58:26;;;;;;;4.30;1.80;;;;;;;;;;6189065;23;20238;-79
2022/03/27 14:01:00;;;;;;;3.80;1.50;;;;;;;;;;6188777;23;20170;-79
2022/03/27 14:03:29;;;;;;;8.37;1.77;;;;;;;;;;6215223;23;20208;-79
2022/03/27 14:05:58;;;;;;;2.73;1.47;;;;;;;;;;6215950;23;20223;-79
2022/03/27 14:08:27;;;;;;;6.20;2.10;;;;;;;;;;6189291;23;20184;-79
2022/03/27 14:10:55;;;;;;;6.10;2.30;;;;;;;;;;6215506;23;20185;-79
2022/03/27 14:13:24;;;;;;;2.87;1.83;;;;;;;;;;6189038;23;20181;-79
2022/03/27 14:15:52;;;;;;;5.03;2.47;;;;;;;;;;6188577;23;20175;-79
2022/03/27 14:18:21;;;;;;;9.13;2.40;;;;;;;;;;6188621;23;20209;-78
2022/03/27 14:20:50;;;;;;;3.87;2.27;;;;;;;;;;6188660;23;20194;-79
2022/03/27 14:23:19;;;;;;;4.77;2.53;;;;;;;;;;6188606;23;20185;-79
2022/03/27 14:25:47;;;;;;;15.60;2.80;;;;;;;;;;6215264;23;20236;-79
2022/03/27 14:28:16;;;;;;;12.63;2.87;;;;;;;;;;6188949;23;20228;-79
2022/03/27 14:30:44;;;;;;;4.93;1.93;;;;;;;;;;6215056;23;20193;-79
2022/03/27 14:33:13;;;;;;;11.30;2.63;;;;;;;;;;6215200;23;20192;-79
2022/03/27 14:35:41;;;;;;;5.43;2.40;;;;;;;;;;6214775;23;20178;-79
2022/03/27 14:38:11;;;;;;;7.97;2.90;;;;;;;;;;6215438;23;20177;-79
2022/03/27 14:40:41;;;;;;;2.80;1.33;;;;;;;;;;6215524;23;20174;-79
2022/03/27 14:43:09;;;;;;;4.17;2.70;;;;;;;;;;6188589;23;20186;-79
2022/03/27 14:45:38;;;;;;;4.33;2.87;;;;;;;;;;6188378;23;20185;-80
2022/03/27 14:48:06;;;;;;;6.87;1.90;;;;;;;;;;6188945;23;20178;-80
2022/03/27 14:50:35;;;;;;;5.87;2.37;;;;;;;;;;6188695;23;20170;-80
2022/03/27 14:53:04;;;;;;;5.93;1.77;;;;;;;;;;6215110;23;20227;-80
2022/03/27 14:58:20;;;;;;;2.13;1.07;;;;;;;;;;6188955;23;20170;-79
2022/03/27 15:00:49;;;;;;;14.03;2.53;;;;;;;;;;6188437;23;20174;-80
2022/03/27 15:03:18;;;;;;;6.80;2.60;;;;;;;;;;6188388;23;20289;-79
2022/03/27 15:05:52;;;;;;;7.53;2.03;;;;;;;;;;6188681;23;20176;-80
2022/03/27 15:08:20;;;;;;;6.43;2.17;;;;;;;;;;6214993;23;20170;-79
2022/03/27 15:10:50;;;;;;;9.53;2.60;;;;;;;;;;6188748;23;20184;-81
2022/03/27 15:13:19;;;;;;;3.57;1.80;;;;;;;;;;6190582;23;20188;-80
2022/03/27 15:15:47;;;;;;;2.87;1.97;;;;;;;;;;6190453;23;20182;-79
2022/03/27 15:18:16;;;;;;;5.37;1.93;;;;;;;;;;6190604;23;20256;-79